createdAt,value
2018-06-17T00:02:09.616Z,20.23
2018-06-17T00:04:38.945Z,20.10
2018-06-17T00:07:08.401Z,20.09
2018-06-17T00:09:37.792Z,20.23
2018-06-17T00:12:07.149Z,19.54
2018-06-17T00:14:36.535Z,19.68
2018-06-17T00:17:06.105Z,19.47
2018-06-17T00:19:35.529Z,19.55
2018-06-17T00:22:04.982Z,19.91
2018-06-17T00:24:34.331Z,20.16
2018-06-17T00:27:03.754Z,19.63
2018-06-17T00:29:33.062Z,19.67
2018-06-17T00:32:02.420Z,20.01
2018-06-17T00:34:31.768Z,20.15
2018-06-17T00:37:01.115Z,20.17
2018-06-17T00:39:30.598Z,20.29
2018-06-17T00:41:59.976Z,20.26
2018-06-17T00:44:29.421Z,19.57
2018-06-17T00:46:58.792Z,19.99
2018-06-17T00:49:28.213Z,20.15
2018-06-17T00:51:57.574Z,20.39
2018-06-17T00:54:27.013Z,20.22
2018-06-17T00:57:07.497Z,20.23
2018-06-17T00:59:36.920Z,20.26
2018-06-17T01:02:06.254Z,20.19
2018-06-17T01:04:35.597Z,20.04
2018-06-17T01:07:05.006Z,20.11
2018-06-17T01:09:34.483Z,20.15
2018-06-17T01:12:03.937Z,20.21
2018-06-17T01:14:33.276Z,20.09
2018-06-17T01:17:02.609Z,19.76
2018-06-17T01:19:32.280Z,19.86
2018-06-17T01:22:01.941Z,19.68
2018-06-17T01:24:31.242Z,19.70
2018-06-17T01:27:00.599Z,20.05
2018-06-17T01:29:29.964Z,19.47
2018-06-17T01:31:59.469Z,19.70
2018-06-17T01:34:29.043Z,19.86
2018-06-17T01:36:58.445Z,19.55
2018-06-17T01:39:29.096Z,19.52
2018-06-17T01:41:58.589Z,19.82
2018-06-17T01:44:28.086Z,19.81
2018-06-17T01:46:57.520Z,19.33
2018-06-17T01:49:26.988Z,20.06
2018-06-17T01:51:56.440Z,19.77
2018-06-17T01:54:25.827Z,20.25
2018-06-17T01:56:55.197Z,19.82
2018-06-17T01:59:24.531Z,20.35
2018-06-17T02:01:53.869Z,19.77
2018-06-17T02:04:28.411Z,19.97
2018-06-17T02:07:02.890Z,19.63
2018-06-17T02:09:37.498Z,20.10
2018-06-17T02:12:12.262Z,19.96
2018-06-17T02:14:46.817Z,20.14
2018-06-17T02:17:16.147Z,19.96
2018-06-17T02:19:45.493Z,20.16
2018-06-17T02:22:14.805Z,19.53
2018-06-17T02:24:44.278Z,19.97
2018-06-17T02:27:13.668Z,19.79
2018-06-17T02:29:43.227Z,20.18
2018-06-17T02:32:12.782Z,20.30
2018-06-17T02:34:42.129Z,19.91
2018-06-17T02:37:11.533Z,20.09
2018-06-17T02:39:41.030Z,20.01
2018-06-17T02:42:10.768Z,20.27
2018-06-17T02:44:40.176Z,19.98
2018-06-17T02:47:14.793Z,19.68
2018-06-17T02:49:47.192Z,20.16
2018-06-17T02:52:21.903Z,20.04
2018-06-17T02:54:51.233Z,19.72
2018-06-17T02:57:20.873Z,19.56
2018-06-17T02:59:50.178Z,19.94
2018-06-17T03:02:19.498Z,19.67
2018-06-17T03:04:48.805Z,19.50
2018-06-17T03:07:18.204Z,18.86
2018-06-17T03:09:47.524Z,19.64
2018-06-17T03:12:16.892Z,19.76
2018-06-17T03:14:46.197Z,19.08
2018-06-17T03:17:15.533Z,19.77
2018-06-17T03:19:44.929Z,19.74
2018-06-17T03:22:14.287Z,19.87
2018-06-17T03:24:49.042Z,19.81
2018-06-17T03:27:23.390Z,19.42
2018-06-17T03:29:57.936Z,19.23
2018-06-17T03:32:32.691Z,19.10
2018-06-17T03:35:07.302Z,19.01
2018-06-17T03:37:36.682Z,19.24
2018-06-17T03:40:06.018Z,19.30
2018-06-17T03:42:35.449Z,19.17
2018-06-17T03:45:04.900Z,19.15
2018-06-17T03:47:34.250Z,19.16
2018-06-17T03:50:03.804Z,18.88
2018-06-17T03:52:33.322Z,18.69
2018-06-17T03:55:02.879Z,18.88
2018-06-17T03:57:32.313Z,18.13
2018-06-17T04:00:01.746Z,17.99
2018-06-17T04:02:33.921Z,18.14
2018-06-17T04:05:08.715Z,18.60
2018-06-17T04:07:38.134Z,18.57
2018-06-17T04:10:07.507Z,18.87
2018-06-17T04:12:36.886Z,18.28
2018-06-17T04:15:06.264Z,18.64
2018-06-17T04:17:35.602Z,18.60
2018-06-17T04:20:05.049Z,18.43
2018-06-17T04:22:34.371Z,18.18
2018-06-17T04:25:03.882Z,18.62
2018-06-17T04:27:33.219Z,18.65
2018-06-17T04:30:02.668Z,18.48
2018-06-17T04:32:32.094Z,18.81
2018-06-17T04:35:01.419Z,17.91
2018-06-17T04:37:31.689Z,18.44
2018-06-17T04:40:01.146Z,17.99
2018-06-17T04:42:30.610Z,17.86
2018-06-17T04:45:00.272Z,17.90
2018-06-17T04:47:29.714Z,17.93
2018-06-17T04:49:59.038Z,18.34
2018-06-17T04:52:28.382Z,18.82
2018-06-17T04:54:57.717Z,18.10
2018-06-17T04:57:27.166Z,18.21
2018-06-17T04:59:56.748Z,18.69
2018-06-17T05:02:26.333Z,18.59
2018-06-17T05:04:55.733Z,18.36
2018-06-17T05:07:25.050Z,18.66
2018-06-17T05:09:54.578Z,18.94
2018-06-17T05:12:24.069Z,19.09
2018-06-17T05:14:53.614Z,18.49
2018-06-17T05:17:23.050Z,19.59
2018-06-17T05:19:52.357Z,20.20
2018-06-17T05:22:24.644Z,19.50
2018-06-17T05:24:53.993Z,21.14
2018-06-17T05:27:23.450Z,21.26
2018-06-17T05:29:52.749Z,22.34
2018-06-17T05:32:22.160Z,22.48
2018-06-17T05:34:51.510Z,23.64
2018-06-17T05:37:20.833Z,23.22
2018-06-17T05:39:50.232Z,23.88
2018-06-17T05:42:19.545Z,23.49
2018-06-17T05:44:48.918Z,23.06
2018-06-17T05:47:18.236Z,23.40
2018-06-17T05:49:47.533Z,23.79
2018-06-17T05:52:16.844Z,24.16
2018-06-17T05:54:46.173Z,23.64
2018-06-17T05:57:15.473Z,23.48
2018-06-17T05:59:44.822Z,22.76
2018-06-17T06:02:14.273Z,23.04
2018-06-17T06:04:43.617Z,22.21
2018-06-17T06:07:12.982Z,22.81
2018-06-17T06:09:42.278Z,22.88
2018-06-17T06:12:11.589Z,23.80
2018-06-17T06:14:40.919Z,24.43
2018-06-17T06:17:10.181Z,22.86
2018-06-17T06:19:39.530Z,22.15
2018-06-17T06:22:08.889Z,20.66
2018-06-17T06:24:38.299Z,21.62
2018-06-17T06:27:07.599Z,22.42
2018-06-17T06:29:36.878Z,21.78
2018-06-17T06:32:06.204Z,21.27
2018-06-17T06:34:35.476Z,21.25
2018-06-17T06:37:05.306Z,20.47
2018-06-17T06:39:34.718Z,21.05
2018-06-17T06:42:04.104Z,22.40
2018-06-17T06:44:33.427Z,23.38
2018-06-17T06:47:02.805Z,23.63
2018-06-17T06:49:32.120Z,24.13
2018-06-17T06:52:01.453Z,23.57
2018-06-17T06:54:30.820Z,23.48
2018-06-17T06:57:00.095Z,24.91
2018-06-17T06:59:29.416Z,24.63
2018-06-17T07:02:10.077Z,24.11
2018-06-17T07:04:50.697Z,24.19
2018-06-17T07:07:31.271Z,23.55
2018-06-17T07:10:11.796Z,23.90
2018-06-17T07:12:41.084Z,23.31
2018-06-17T07:15:10.380Z,22.19
2018-06-17T07:17:50.885Z,21.93
2018-06-17T07:20:20.184Z,21.12
2018-06-17T07:22:49.196Z,21.68
2018-06-17T07:25:28.144Z,21.21
2018-06-17T07:30:14.325Z,21.95
2018-06-17T07:32:43.378Z,23.68
2018-06-17T07:35:12.443Z,24.55
2018-06-17T07:37:41.560Z,24.25
2018-06-17T07:40:53.454Z,24.45
2018-06-17T07:43:22.646Z,24.92
2018-06-17T07:45:51.703Z,24.96
2018-06-17T07:49:36.553Z,24.99
2018-06-17T07:52:17.636Z,25.16
2018-06-17T07:54:47.094Z,25.86
2018-06-17T07:57:17.399Z,24.94
2018-06-17T07:59:46.456Z,23.23
2018-06-17T08:02:15.814Z,22.70
2018-06-17T08:04:44.956Z,22.65
2018-06-17T08:07:14.028Z,22.92
2018-06-17T08:09:43.160Z,22.38
2018-06-17T08:12:12.703Z,23.53
2018-06-17T08:14:41.886Z,24.57
2018-06-17T08:17:10.952Z,24.94
2018-06-17T08:19:40.497Z,24.19
2018-06-17T08:22:09.532Z,24.70
2018-06-17T08:24:38.736Z,25.25
2018-06-17T08:27:07.876Z,25.31
2018-06-17T08:29:37.066Z,26.12
2018-06-17T08:32:06.261Z,24.93
2018-06-17T08:34:35.331Z,24.50
2018-06-17T08:37:04.458Z,24.89
2018-06-17T08:39:33.508Z,25.25
2018-06-17T08:42:02.693Z,25.38
2018-06-17T08:44:31.851Z,24.37
2018-06-17T08:47:00.936Z,24.41
2018-06-17T08:49:30.014Z,23.50
2018-06-17T08:51:59.180Z,23.45
2018-06-17T08:54:28.293Z,24.72
2018-06-17T08:56:57.422Z,24.65
2018-06-17T08:59:26.464Z,25.27
2018-06-17T09:01:55.565Z,25.42
2018-06-17T09:04:24.634Z,25.63
2018-06-17T09:06:53.942Z,25.78
2018-06-17T09:09:23.146Z,25.81
2018-06-17T09:11:52.325Z,26.13
2018-06-17T09:14:21.396Z,25.83
2018-06-17T09:16:50.634Z,26.10
2018-06-17T09:19:19.902Z,24.65
2018-06-17T09:21:49.088Z,24.88
2018-06-17T09:24:18.234Z,24.34
2018-06-17T09:26:47.360Z,23.60
2018-06-17T09:29:16.465Z,23.34
2018-06-17T09:31:45.627Z,22.96
2018-06-17T09:34:14.637Z,24.06
2018-06-17T09:36:43.826Z,23.34
2018-06-17T09:39:12.899Z,25.15
2018-06-17T09:41:41.912Z,25.90
2018-06-17T09:44:10.921Z,26.26
2018-06-17T09:46:39.928Z,25.58
2018-06-17T09:49:09.219Z,25.07
2018-06-17T09:51:38.394Z,25.08
2018-06-17T09:54:07.614Z,24.33
2018-06-17T09:56:36.663Z,24.33
2018-06-17T09:59:05.781Z,25.33
2018-06-17T10:01:34.814Z,25.17
2018-06-17T10:04:03.856Z,25.46
2018-06-17T10:06:32.891Z,25.01
2018-06-17T10:09:02.022Z,25.20
2018-06-17T10:11:32.185Z,25.21
2018-06-17T10:14:01.693Z,24.28
2018-06-17T10:16:31.055Z,23.42
2018-06-17T10:19:00.565Z,23.57
2018-06-17T10:21:29.868Z,25.02
2018-06-17T10:23:59.196Z,25.39
2018-06-17T10:26:28.556Z,25.16
2018-06-17T10:28:57.936Z,23.57
2018-06-17T10:31:27.337Z,23.47
2018-06-17T10:33:56.608Z,24.44
2018-06-17T10:36:25.925Z,26.16
2018-06-17T10:38:55.354Z,25.97
2018-06-17T10:41:24.657Z,26.02
2018-06-17T10:43:54.037Z,26.51
2018-06-17T10:46:23.344Z,25.43
2018-06-17T10:48:52.735Z,23.88
2018-06-17T10:51:22.091Z,24.26
2018-06-17T10:53:51.452Z,23.26
2018-06-17T10:56:20.840Z,24.47
2018-06-17T10:58:50.138Z,24.50
2018-06-17T11:01:19.491Z,24.46
2018-06-17T11:03:48.962Z,24.66
2018-06-17T11:06:18.345Z,24.13
2018-06-17T11:08:47.919Z,24.47
2018-06-17T11:11:17.315Z,24.03
2018-06-17T11:13:46.677Z,23.41
2018-06-17T11:16:15.974Z,23.42
2018-06-17T11:18:45.365Z,23.11
2018-06-17T11:21:14.764Z,22.90
2018-06-17T11:23:44.130Z,22.23
2018-06-17T11:26:13.488Z,22.32
2018-06-17T11:28:42.959Z,23.39
2018-06-17T11:31:12.293Z,23.55
2018-06-17T11:33:41.675Z,23.28
2018-06-17T11:36:11.021Z,23.44
2018-06-17T11:38:40.341Z,24.40
2018-06-17T11:41:09.749Z,23.84
2018-06-17T11:43:39.084Z,23.89
2018-06-17T11:46:08.460Z,24.67
2018-06-17T11:48:37.803Z,24.09
2018-06-17T11:51:07.152Z,24.11
2018-06-17T11:53:36.507Z,23.90
2018-06-17T11:56:05.824Z,24.41
2018-06-17T11:58:35.194Z,24.27
2018-06-17T12:01:04.504Z,24.78
2018-06-17T12:03:33.827Z,24.54
2018-06-17T12:06:03.231Z,24.61
2018-06-17T12:08:32.545Z,25.36
2018-06-17T12:11:01.883Z,24.69
2018-06-17T12:13:31.180Z,23.41
2018-06-17T12:16:00.574Z,23.53
2018-06-17T12:18:29.925Z,23.65
2018-06-17T12:20:59.309Z,24.23
2018-06-17T12:23:28.662Z,24.95
2018-06-17T12:25:57.989Z,25.80
2018-06-17T12:28:27.411Z,25.42
2018-06-17T12:30:56.767Z,24.45
2018-06-17T12:33:26.102Z,24.72
2018-06-17T12:35:55.641Z,24.79
2018-06-17T12:38:24.967Z,23.42
2018-06-17T12:40:54.405Z,24.12
2018-06-17T12:43:23.733Z,23.81
2018-06-17T12:45:53.012Z,24.35
2018-06-17T12:48:22.288Z,24.25
2018-06-17T12:50:51.609Z,24.13
2018-06-17T12:53:20.974Z,25.06
2018-06-17T12:55:50.245Z,25.69
2018-06-17T12:58:19.516Z,25.77
2018-06-17T13:00:48.785Z,25.54
2018-06-17T13:03:18.133Z,25.24
2018-06-17T13:05:47.434Z,25.36
2018-06-17T13:08:16.708Z,25.25
2018-06-17T13:10:46.068Z,25.14
2018-06-17T13:13:15.373Z,25.75
2018-06-17T13:15:44.932Z,25.82
2018-06-17T13:18:14.230Z,25.80
2018-06-17T13:20:43.601Z,26.27
2018-06-17T13:23:13.177Z,25.29
2018-06-17T13:25:42.640Z,25.95
2018-06-17T13:28:12.313Z,26.08
2018-06-17T13:30:42.733Z,24.96
2018-06-17T13:33:12.184Z,24.11
2018-06-17T13:35:41.615Z,24.51
2018-06-17T13:38:11.066Z,24.14
2018-06-17T13:40:40.376Z,24.68
2018-06-17T13:43:10.854Z,24.76
2018-06-17T13:45:40.166Z,24.27
2018-06-17T13:48:09.528Z,24.05
2018-06-17T13:50:39.020Z,23.94
2018-06-17T13:53:08.555Z,24.29
2018-06-17T13:55:37.888Z,24.52
2018-06-17T13:58:07.352Z,23.88
2018-06-17T14:00:36.969Z,23.94
2018-06-17T14:03:06.269Z,23.81
2018-06-17T14:05:35.645Z,23.51
2018-06-17T14:08:04.956Z,22.76
2018-06-17T14:10:34.273Z,23.58
2018-06-17T14:13:03.641Z,23.02
2018-06-17T14:15:33.155Z,24.09
2018-06-17T14:18:02.528Z,24.02
2018-06-17T14:20:31.912Z,24.38
2018-06-17T14:23:01.215Z,25.12
2018-06-17T14:25:30.528Z,25.34
2018-06-17T14:27:59.898Z,25.43
2018-06-17T14:30:29.199Z,25.68
2018-06-17T14:32:58.488Z,25.21
2018-06-17T14:35:27.876Z,25.63
2018-06-17T14:37:57.205Z,26.55
2018-06-17T14:40:26.522Z,24.73
2018-06-17T14:43:00.972Z,24.55
2018-06-17T14:45:35.405Z,24.96
2018-06-17T14:48:10.881Z,24.19
2018-06-17T14:50:45.649Z,24.18
2018-06-17T14:53:16.664Z,24.28
2018-06-17T14:55:46.068Z,24.31
2018-06-17T14:58:15.425Z,24.07
2018-06-17T15:00:44.760Z,24.11
2018-06-17T15:03:14.139Z,24.37
2018-06-17T15:05:43.585Z,24.41
2018-06-17T15:08:12.890Z,23.82
2018-06-17T15:10:42.201Z,24.03
2018-06-17T15:13:11.529Z,23.89
2018-06-17T15:15:42.173Z,24.17
2018-06-17T15:18:11.618Z,24.21
2018-06-17T15:20:40.873Z,23.86
2018-06-17T15:23:10.216Z,23.99
2018-06-17T15:25:39.534Z,24.06
2018-06-17T15:28:08.837Z,24.04
2018-06-17T15:30:38.205Z,24.96
2018-06-17T15:33:12.856Z,24.13
2018-06-17T15:35:48.245Z,23.82
2018-06-17T15:38:22.768Z,23.62
2018-06-17T15:40:57.402Z,23.48
2018-06-17T15:43:27.421Z,23.28
2018-06-17T15:45:57.288Z,23.64
2018-06-17T15:48:26.641Z,24.06
2018-06-17T15:50:55.998Z,23.93
2018-06-17T15:53:25.293Z,23.76
2018-06-17T15:55:54.658Z,24.28
2018-06-17T15:58:23.928Z,24.02
2018-06-17T16:00:53.317Z,23.17
2018-06-17T16:03:22.624Z,23.54
2018-06-17T16:05:52.082Z,23.92
2018-06-17T16:08:21.404Z,23.50
2018-06-17T16:10:50.707Z,23.64
2018-06-17T16:13:25.221Z,23.09
2018-06-17T16:15:59.704Z,23.38
2018-06-17T16:18:35.004Z,22.85
2018-06-17T16:21:06.277Z,23.01
2018-06-17T16:23:35.955Z,23.13
2018-06-17T16:26:05.352Z,23.03
2018-06-17T16:28:34.704Z,23.50
2018-06-17T16:31:06.845Z,22.88
2018-06-17T16:33:36.145Z,23.16
2018-06-17T16:36:05.556Z,22.79
2018-06-17T16:38:35.896Z,23.07
2018-06-17T16:41:05.249Z,23.39
2018-06-17T16:43:34.534Z,23.00
2018-06-17T16:46:03.859Z,22.89
2018-06-17T16:48:33.156Z,22.98
2018-06-17T16:51:07.772Z,22.71
2018-06-17T16:53:42.228Z,22.34
2018-06-17T16:56:16.726Z,22.05
2018-06-17T16:58:52.084Z,21.92
2018-06-17T17:01:21.501Z,22.32
2018-06-17T17:03:50.824Z,22.46
2018-06-17T17:06:20.240Z,22.43
2018-06-17T17:08:49.557Z,22.33
2018-06-17T17:11:18.873Z,22.35
2018-06-17T17:13:48.249Z,22.17
2018-06-17T17:16:17.601Z,22.32
2018-06-17T17:18:46.916Z,22.76
2018-06-17T17:21:16.227Z,22.84
2018-06-17T17:23:45.549Z,22.28
2018-06-17T17:26:14.961Z,22.73
2018-06-17T17:28:44.321Z,21.84
2018-06-17T17:31:13.668Z,22.54
2018-06-17T17:33:48.240Z,22.70
2018-06-17T17:36:22.811Z,22.52
2018-06-17T17:38:57.241Z,22.46
2018-06-17T17:41:26.669Z,22.52
2018-06-17T17:43:56.036Z,21.64
2018-06-17T17:46:32.229Z,21.73
2018-06-17T17:49:01.562Z,21.75
2018-06-17T17:51:30.877Z,22.17
2018-06-17T17:54:00.287Z,22.09
2018-06-17T17:56:29.631Z,21.67
2018-06-17T17:58:59.089Z,20.72
2018-06-17T18:01:28.575Z,21.06
2018-06-17T18:03:58.731Z,20.68
2018-06-17T18:06:28.203Z,21.00
2018-06-17T18:08:57.556Z,20.75
2018-06-17T18:11:26.940Z,21.03
2018-06-17T18:13:56.424Z,20.51
2018-06-17T18:16:25.828Z,20.78
2018-06-17T18:18:55.282Z,20.96
2018-06-17T18:21:24.618Z,20.59
2018-06-17T18:23:53.998Z,20.96
2018-06-17T18:26:28.913Z,20.50
2018-06-17T18:29:04.363Z,20.51
2018-06-17T18:31:38.954Z,20.63
2018-06-17T18:34:13.555Z,20.44
2018-06-17T18:36:43.963Z,20.68
2018-06-17T18:39:13.260Z,20.83
2018-06-17T18:41:42.544Z,20.83
2018-06-17T18:44:11.859Z,21.50
2018-06-17T18:46:41.169Z,21.06
2018-06-17T18:49:10.518Z,20.77
2018-06-17T18:51:39.795Z,20.83
2018-06-17T18:54:09.110Z,20.37
2018-06-17T18:56:38.404Z,20.86
2018-06-17T18:59:07.791Z,20.12
2018-06-17T19:01:37.157Z,20.17
2018-06-17T19:04:06.433Z,20.50
2018-06-17T19:06:35.832Z,20.26
2018-06-17T19:09:12.748Z,20.21
2018-06-17T19:11:47.409Z,20.13
2018-06-17T19:14:22.942Z,20.26
2018-06-17T19:16:57.506Z,19.99
2018-06-17T19:19:26.921Z,19.62
2018-06-17T19:21:56.228Z,19.54
2018-06-17T19:24:25.527Z,19.01
2018-06-17T19:26:54.834Z,19.02
2018-06-17T19:29:24.189Z,19.28
2018-06-17T19:31:53.505Z,19.13
2018-06-17T19:34:22.825Z,18.90
2018-06-17T19:36:52.180Z,18.65
2018-06-17T19:39:21.520Z,18.70
2018-06-17T19:41:50.837Z,18.31
2018-06-17T19:44:20.169Z,18.37
2018-06-17T19:46:49.501Z,18.32
2018-06-17T19:49:18.897Z,18.86
2018-06-17T19:51:53.288Z,18.98
2018-06-17T19:54:27.965Z,18.98
2018-06-17T19:57:02.498Z,19.02
2018-06-17T19:59:42.550Z,18.98
2018-06-17T20:02:12.372Z,19.12
2018-06-17T20:04:41.743Z,19.25
2018-06-17T20:07:11.047Z,19.19
2018-06-17T20:09:40.379Z,18.85
2018-06-17T20:12:09.930Z,18.98
2018-06-17T20:14:39.232Z,18.66
2018-06-17T20:17:08.620Z,19.11
2018-06-17T20:19:37.976Z,18.73
2018-06-17T20:22:08.449Z,18.66
2018-06-17T20:24:39.862Z,18.75
2018-06-17T20:27:09.303Z,19.09
2018-06-17T20:29:38.706Z,18.54
2018-06-17T20:32:13.348Z,18.64
2018-06-17T20:34:47.824Z,18.29
2018-06-17T20:37:22.478Z,18.47
2018-06-17T20:39:54.172Z,18.97
2018-06-17T20:42:28.660Z,18.25
2018-06-17T20:44:58.268Z,18.24
2018-06-17T20:47:27.908Z,17.91
2018-06-17T20:49:57.381Z,18.37
2018-06-17T20:52:26.661Z,18.17
2018-06-17T20:54:56.069Z,18.37
2018-06-17T20:57:25.983Z,18.24
2018-06-17T20:59:56.846Z,18.62
2018-06-17T21:02:26.233Z,18.35
2018-06-17T21:04:55.651Z,18.70
2018-06-17T21:07:25.139Z,18.36
2018-06-17T21:09:54.655Z,18.56
2018-06-17T21:12:23.922Z,18.64
2018-06-17T21:14:53.513Z,18.88
2018-06-17T21:17:25.592Z,18.74
2018-06-17T21:20:00.181Z,18.50
2018-06-17T21:22:34.856Z,18.50
2018-06-17T21:25:09.299Z,18.42
2018-06-17T21:27:40.832Z,18.80
2018-06-17T21:30:10.892Z,18.67
2018-06-17T21:32:40.862Z,18.40
2018-06-17T21:35:10.761Z,18.60
2018-06-17T21:37:40.157Z,18.49
2018-06-17T21:40:09.456Z,18.62
2018-06-17T21:42:38.934Z,18.62
2018-06-17T21:45:08.528Z,17.75
2018-06-17T21:47:37.888Z,18.20
2018-06-17T21:50:07.249Z,18.01
2018-06-17T21:52:36.519Z,18.30
2018-06-17T21:55:05.870Z,17.70
2018-06-17T21:57:35.141Z,18.27
2018-06-17T22:00:05.581Z,18.04
2018-06-17T22:02:39.581Z,18.02
2018-06-17T22:05:08.941Z,18.35
2018-06-17T22:07:43.621Z,18.03
2018-06-17T22:10:19.644Z,18.12
2018-06-17T22:12:54.098Z,18.01
2018-06-17T22:15:28.792Z,18.13
2018-06-17T22:17:58.101Z,18.33
2018-06-17T22:20:27.359Z,17.71
2018-06-17T22:22:56.731Z,18.02
2018-06-17T22:25:26.062Z,18.15
2018-06-17T22:27:55.667Z,18.03
2018-06-17T22:30:24.940Z,17.95
2018-06-17T22:32:54.271Z,18.09
2018-06-17T22:35:23.552Z,18.00
2018-06-17T22:37:53.096Z,17.96
2018-06-17T22:40:22.353Z,18.21
2018-06-17T22:42:51.613Z,18.18
2018-06-17T22:45:20.864Z,18.03
2018-06-17T22:47:56.318Z,17.60
2018-06-17T22:50:25.582Z,17.69
2018-06-17T22:53:06.044Z,17.41
2018-06-17T22:55:35.549Z,17.73
2018-06-17T22:58:10.094Z,17.78
2018-06-17T23:00:44.653Z,16.90
2018-06-17T23:03:19.198Z,17.42
2018-06-17T23:05:53.786Z,17.86
2018-06-17T23:08:28.450Z,17.83
2018-06-17T23:10:57.919Z,17.81
2018-06-17T23:13:27.424Z,18.17
2018-06-17T23:15:56.812Z,17.93
2018-06-17T23:18:26.136Z,17.98
2018-06-17T23:20:55.472Z,17.96
2018-06-17T23:23:24.725Z,18.39
2018-06-17T23:25:53.991Z,18.02
2018-06-17T23:28:23.375Z,17.51
2018-06-17T23:30:52.659Z,17.98
2018-06-17T23:33:21.966Z,17.73
2018-06-17T23:35:51.233Z,17.54
2018-06-17T23:38:21.588Z,17.97
2018-06-17T23:40:50.968Z,17.86
2018-06-17T23:43:20.272Z,17.69
2018-06-17T23:45:54.761Z,17.78
2018-06-17T23:48:29.441Z,17.13
2018-06-17T23:51:03.934Z,17.61
2018-06-17T23:53:38.424Z,17.80
2018-06-17T23:56:09.160Z,17.86
2018-06-17T23:58:39.390Z,17.64
